Washington Court House, OH

8:04 AM EDT on July 22, 2017 (GMT -0400)
Slightly NW of WCH | | Change Station

Elev 1020 ft 39.57 °N, 83.50 °W | Updated 13 seconds ago

Mostly Cloudy
Mostly Cloudy
70.9 °F
Feels Like 70.9 °F
N
0.0
Wind Variable Wind from SSE

Today
High -- | Low -- °F
--% Chance of Precip.
Yesterday
High -- | Low -- °F
Precip. -- in
Pressure 29.88 in
Visibility 9.0 miles
Clouds Few 4700 ft
Dew Point 70 °F
Humidity 98%
Rainfall 0.02 in
Snow Depth Not available.
6:24 AM 8:55 PM
Waning Crescent, 1% visible
METAR KILN 221154Z AUTO 29003KT 9SM FEW047 24/23 A2992 RMK AO2 LTG DSNT E RAE13 TSB05E20 SLP119 P0000 60002 70068 T02390228 10244 20222 50010
Pressure 29.88 in
Visibility 9.0 miles
Clouds Few 4700 ft
Dew Point 70 °F
Humidity 98%
Rainfall 0.02 in
Snow Depth Not available.
6:24 AM 8:55 PM
Waning Crescent, 1% visible
METAR KILN 221154Z AUTO 29003KT 9SM FEW047 24/23 A2992 RMK AO2 LTG DSNT E RAE13 TSB05E20 SLP119 P0000 60002 70068 T02390228 10244 20222 50010

Get Severe Weather Alerts

Thanks for signing up!

Be on the lookout for a verification email in your inbox.

You'll start receiving the daily forecast at 6 AM.

×

10-Day Weather Forecast

Almanac

Astronomy

Jul. 22, 2017 Rise Set
Actual Time
Civil Twilight
Nautical Twilight
Astronomical Twilight
Moon
Length of Visible Light
Length of Day
Tomorrow will be .
, % of the Moon is Illuminated

Today's Extremes

State Highs State Lows

Community

WunderPhotos

Category 6

Welcome to Category 6. This is the collective home for Weather Underground's featured writeups by Dr. Jeff Masters (right), Bob Henson (left), Chris Burt, and other regular contributors.

Nearby

Air Quality

  Air Quality AQ Index Pollutant
Not available.

Snow Depth

Station Depth Elevation

Earthquake Activity

City Distance Mag. Time & Date
Minimum magnitude displayed is 2.5.

Coastal Water Temperatures

Place Temperature

Stations

Nearby Weather Stations

Station Location Temp. Windchill Dew Point Humidity Wind Precip. Elev Updated Type
                   

Watches & Warnings

There are currently no watches in effect.